Impacts METAR Board
IDs:

KDFW - Dallas-Ft Worth Intl, TX, US

Updated at: 0700 UTC 24 Jun 2018
Potential Impact None Slight Moderate High
Time 23/19Z 23/20Z 23/21Z 23/22Z 23/23Z 24/00Z 24/01Z 24/02Z 24/03Z 24/04Z 24/05Z 24/06Z 24/07Z
Temp93 96 96 96 96 95 93 89 87 88 87 85 84
Dewpt73 70 69 68 66 68 67 69 70 70 71 71 72
Altim29.78 29.75 29.74 29.73 29.71 29.71 29.72 29.72 29.72 29.76 29.78 29.81 29.73
VIS10 10 10 10 10 10 10 10 10 10 10 10 10
CIG75 55 -- -- -- -- -- -- -- 250 250 230 200
CoverBKNBKNSCTSCTSCTSCTSCTSCTSCTBKNOVCOVCOVC
FltCatVFRVFRVFRVFRVFRVFRVFRVFRVFRVFRVFRVFRVFR
WX------------------------TS
WDir130170170150170150160130130150160180170
WSpd14 13 14 15 17 14 14 13 10 11 13 17 23
WGst19 21 23 23 25 -- -- -- -- -- 21 25 31
Raw hourly METARs
KDFW 231853Z 13014G19KT 10SM FEW050 SCT060 BKN075 34/23 A2978 RMK AO2 SLP073 T03390228
KDFW 231953Z 17013G21KT 10SM BKN055 36/21 A2975 RMK AO2 PK WND 14027/1922 SLP063 T03560211
KDFW 232053Z 17014G23KT 10SM SCT060 36/21 A2974 RMK AO2 PK WND 16026/2030 SLP060 T03560206 56026
KDFW 232153Z 15015G23KT 10SM SCT070 36/20 A2973 RMK AO2 SLP055 T03560200
KDFW 232253Z 17017G25KT 10SM SCT070 36/19 A2971 RMK AO2 PK WND 15026/2242 SLP050 T03560189
KDFW 232353Z 15014KT 10SM SCT070 35/20 A2971 RMK AO2 SLP050 T03500200 10361 20322 56010
KDFW 240053Z 16014KT 10SM SCT070 SCT250 34/19 A2972 RMK AO2 SLP052 T03390194
KDFW 240153Z 13013KT 10SM SCT065 SCT250 32/21 A2972 RMK AO2 SLP053 T03170206
KDFW 240253Z 13010KT 10SM FEW065 SCT250 31/21 A2972 RMK AO2 SLP054 OCNL LTGIC DSNT W-NW CB DSNT W-NW MOV SE T03060211 52003
KDFW 240353Z 15011KT 10SM FEW065 BKN250 31/21 A2976 RMK AO2 SLP068 OCNL LTGIC DSNT W-NW CB DSNT W-NW MOV SE T03110211
KDFW 240453Z COR 16013G21KT 10SM FEW065 SCT200 OVC250 31/22 A2978 RMK AO2 OCNL LTGIC DSNT W-NW CB DSNT W-NW MOV E SLP073 T03060217
KDFW 240553Z 18017G25KT 10SM FEW075 SCT180 OVC230 29/22 A2981 RMK AO2 SLP083 FRQ LTGICCC DSNT SW-W CB DSNT SW-W MOV E T02940217 10350 20294 403610244 51029
KDFW 240653Z 17023G31KT 10SM TS FEW075CB SCT110 OVC200 29/22 A2973 RMK AO2 PK WND 18031/0646 LTG DSNT SW AND W TSB20 PRESFR SLP057 FRQ LTGICCCCG SW-W TS SW-W MOV E T02890222



Page loaded:  07:19 UTC  |   12:19 AM Pacific  |   01:19 AM Mountain  |   02:19 AM Central  |   03:19 AM Eastern

 

ADVISORIES

FORECASTS

FORECASTS

OBSERVATIONS

USER TOOLS

ABOUT US